Wrangell, AK

11:09 PM AKDT on July 28, 2014 (GMT -0800)
Wrangell (PAWG) Elev 43 ft | 56.48 °N, 132.37 °W | Change Station

Current weather conditions updated 13 minutes ago

Overcast
Overcast
59 °F
Feels Like 59 °F
N
7
Wind Variable Wind from SE

Tomorrow is forecast to be Cooler than today. Cloudy, periods of rain.

Today
High -- | Low -- °F
--% Chance of Precip.
Yesterday
High -- | Low -- °F
Precip. -- in
4:43 AM 9:06 PM
Waxing Crescent, 5% visible
Pressure 30.02 in
Visibility 7.0 miles
Clouds Few 400 ft
Mostly Cloudy 3500 ft
Overcast 5500 ft
Dew Point 54 °F
Humidity 82%
Rainfall 1.02 in
Snow Depth Not available.
UV 0 out of 12
Pollen Not available.
Air Quality Not available.
Flu Activity Not available.
METAR PAWG 290656Z 14006KT 7SM FEW004 BKN035 OVC055 15/12 A3002 RMK AO1 WEA: -RA (MCQ)

More Conditions Fewer Conditions

Pressure 30.02 in
Visibility 7.0 miles
Clouds Few 400 ft
Mostly Cloudy 3500 ft
Overcast 5500 ft
Dew Point 54 °F
Humidity 82%
Rainfall 1.02 in
Snow Depth Not available.
UV 0 out of 12
Pollen Not available.
Air Quality Not available.
Flu Activity Not available.
METAR PAWG 290656Z 14006KT 7SM FEW004 BKN035 OVC055 15/12 A3002 RMK AO1 WEA: -RA (MCQ)

More Conditions Fewer Conditions

10-Day Weather Forecast

Almanac

Astronomy

Jul. 28, 2014 Rise Set
Actual Time 4:43 AM AKDT 9:06 PM AKDT
Civil Twilight 3:52 AM AKDT 9:57 PM AKDT
Nautical Twilight 2:30 AM AKDT 11:17 PM AKDT
Astronomical Twilight Sun does not rise Sun does not rise
Moon 7:05 AM AKDT (7/28) 9:13 PM AKDT (7/28)
Length of Visible Light 18h 05m
Length of Day
16h 22m
Tomorrow will be 3m 49s shorter.
Waxing Crescent, 5% of the Moon is Illuminated
Jul 29
Waxing Crescent
Aug 3
First Quarter
Aug 10
Full
Aug 17
Last Quarter
Aug 25
New

Community

WunderPhotos

Upload Photos

1,738,651 photos uploaded!

Nearby

Snow Depth

Station Depth Elevation
Long Lake 0 in 820 ft
Moraine 0 in 2100 ft
Grandview 1 in 1100 ft
Grouse Creek Divide 0 in 700 ft
Nuka Glacier 1 in 1250 ft

Earthquake Activity

City Distance Mag. Time & Date
No recent earthquake activity has been reported nearby.
Minimum magnitude displayed is 2.5.

Coastal Water Temperatures

Place Temperature
No Stations Reporting

Nearby Weather Stations

Station Location Temp. Dew Point Humidity Wind Precip. Elev Updated Type
RAWS ZAREMBO AK, Point Baker, AK 54 °F 54 °F 99% South  at  1 mph 0.00 in / hr 899 ft 9:55 PM AKDT MADIS

Show More Stations Show Fewer Stations